Flight Track Log - Related Links

Times and Time Zones

All times are in EDT time to prevent confusion due to time zone crossing. See the UAL4543 flight status page for this flight to view local times or setup timezone preferences in your user account.

Time Position Orientation Groundspeed Altitude Reporting Facility
EDT Latitude Longitude Course Direction KTS MPH feet Rate Location/Type
Fri 07:53:03 PM 40.6667 -74.1833 270° West 162 186 1,100  Level New York TRACON
Fri 07:54:03 PM 40.6167 -74.2167 207° Southwest 215 247 3,400 2,789 Climbing New York TRACON
Fri 07:54:57 PM 40.6667 -74.2833 315° West 283 326 6,400 2,895 Climbing New York TRACON
Fri 07:55:57 PM 40.7333 -74.3333 330° Northwest 293 337 8,900 1,850 Climbing New York TRACON
Fri 07:56:00 PM 40.9890 -74.5207 319° Northwest  Level FlightAware Approximate
Fri 07:56:57 PM 40.8000 -74.4000 323° Northwest 334 384 10,100  Level New York TRACON
Fri 07:57:00 PM 41.0630 -74.6142 316° Northwest  Level FlightAware Approximate
Fri 07:57:57 PM 40.8833 -74.4833 323° Northwest 391 450 10,700  Level New York TRACON
Fri 07:58:00 PM 41.1333 -74.6977 270° West  Level FlightAware Approximate
Fri 07:58:58 PM 40.9761 -74.5528 331° Northwest 417 480 13,600  Level New York Center
Fri 07:59:58 PM 41.0672 -74.6322 327° Northwest 401 461 14,700 1,438 Climbing New York Center
Fri 08:00:59 PM 41.1442 -74.7028 325° Northwest 391 450 16,500 2,083 Climbing New York Center
Fri 08:01:59 PM 41.2433 -74.7886 327° Northwest 391 450 18,900 1,983 Climbing New York Center
Fri 08:03:00 PM 41.3242 -74.8569 328° Northwest 385 443 20,500 1,400 Climbing New York Center
Fri 08:03:59 PM 41.4297 -74.9353 331° Northwest 390 449 21,700 1,109 Climbing New York Center
Fri 08:04:59 PM 41.5311 -75.0108 331° Northwest 401 461 22,700 1,041 Climbing New York Center
Fri 08:06:00 PM 41.6172 -75.1050 321° Northwest 406 467 23,800 1,109 Climbing New York Center
Fri 08:06:58 PM 41.6628 -75.2303 296° West 375 432 24,900 1,160 Climbing New York Center
Fri 08:07:59 PM 41.6931 -75.3628 287° West 375 432 26,100 1,190 Climbing New York Center
Fri 08:08:59 PM 41.7211 -75.4953 286° West 369 425 27,300 1,361 Climbing New York Center
Fri 08:09:58 PM 41.7514 -75.6253 287° West 374 430 28,800 1,388 Climbing New York Center
Fri 08:11:00 PM 41.7792 -75.7525 286° West 367 422 30,100 1,250 Climbing New York Center
Fri 08:11:58 PM 41.8072 -75.8825 286° West 367 422 31,300 958 Climbing New York Center
Fri 08:12:59 PM 41.8367 -76.0186 286° West 373 429 32,000 639 Climbing New York Center
Fri 08:14:00 PM 41.8678 -76.1603 286° West 383 441 32,600 958 Climbing New York Center
Fri 08:14:58 PM 41.8989 -76.2992 287° West 388 447 33,900 712 Climbing New York Center
Fri 08:15:58 PM 41.9239 -76.4269 285° West 388 447 34,000 50 Climbing New York Center
Fri 08:16:58 PM 41.9564 -76.5775 286° West 405 466 34,000  Level New York Center
Fri 08:17:59 PM 41.9864 -76.7281 285° West 415 478 34,000  Level New York Center
Fri 08:18:59 PM 42.0181 -76.8817 286° West 421 484 34,000  Level New York Center
Fri 08:19:21 PM 42.0336 -76.9431 289° West 426 490 34,000  Level Cleveland Center
Fri 08:20:21 PM 42.0656 -77.0950 286° West 426 490 34,000  Level Cleveland Center
Fri 08:21:21 PM 42.0953 -77.2503 285° West 431 496 34,000  Level Cleveland Center
Fri 08:22:21 PM 42.1286 -77.4025 286° West 431 496 34,000  Level Cleveland Center
Fri 08:23:21 PM 42.1578 -77.5581 284° West 431 496 34,000  Level Cleveland Center
Fri 08:24:21 PM 42.1908 -77.7106 286° West 431 496 34,000  Level Cleveland Center
Fri 08:25:21 PM 42.2219 -77.8689 285° West 436 502 34,000  Level Cleveland Center
Fri 08:26:21 PM 42.2547 -78.0275 286° West 436 502 34,000  Level Cleveland Center
Fri 08:27:21 PM 42.2853 -78.1892 284° West 441 507 34,000  Level Cleveland Center
Fri 08:28:21 PM 42.3200 -78.3647 285° West 446 513 34,000  Level Cleveland Center
Fri 08:29:21 PM 42.3500 -78.5239 284° West 446 513 34,000  Level Cleveland Center
Fri 08:30:21 PM 42.3800 -78.6803 285° West 441 507 34,000  Level Cleveland Center
Fri 08:31:21 PM 42.4094 -78.8369 284° West 436 502 34,000  Level Cleveland Center
Fri 08:32:21 PM 42.4389 -78.9881 285° West 430 495 34,000  Level Cleveland Center
Fri 08:33:21 PM 42.4700 -79.1419 285° West 430 495 34,000  Level Cleveland Center
Fri 08:34:21 PM 42.4947 -79.2906 283° West 424 488 34,000  Level Cleveland Center
Fri 08:35:21 PM 42.5003 -79.4286 273° West 400 460 34,000  Level Cleveland Center
Fri 08:36:21 PM 42.5058 -79.5664 273° West 380 437 34,000  Level Cleveland Center
Fri 08:37:21 PM 42.5047 -79.7072 269° West 375 432 34,000  Level Cleveland Center
Fri 08:38:21 PM 42.5017 -79.8453 268° West 375 432 34,000 -300 Level Cleveland Center
Fri 08:39:21 PM 42.5025 -79.9833 271° West 375 432 33,400 -1,050 Descending Cleveland Center
Fri 08:40:21 PM 42.4967 -80.1100 266° West 375 432 31,900 -1,400 Descending Cleveland Center
Fri 08:41:21 PM 42.4931 -80.2397 268° West 359 413 30,600 -950 Descending Cleveland Center
Fri 08:42:21 PM 42.4933 -80.3747 270° West 359 413 30,000 -300 Descending Cleveland Center
Fri 08:43:21 PM 42.4914 -80.5211 269° West 352 405 30,000  Level Cleveland Center
Fri 08:44:21 PM 42.4894 -80.6536 269° West 352 405 30,000  Level Cleveland Center
Fri 08:45:21 PM 42.4872 -80.7858 269° West 352 405 30,000  Level Cleveland Center
Fri 08:46:21 PM 42.4847 -80.9239 269° West 357 411 30,000  Level Cleveland Center
Fri 08:47:21 PM 42.4822 -81.0561 269° West 357 411 30,000  Level Cleveland Center
Fri 08:48:21 PM 42.4794 -81.1883 268° West 363 418 30,000  Level Cleveland Center
Fri 08:49:21 PM 42.4744 -81.3264 267° West 363 418 30,000  Level Cleveland Center
Fri 08:50:21 PM 42.4736 -81.4614 270° West 362 417 30,000  Level Cleveland Center
Fri 08:51:21 PM 42.4703 -81.5992 268° West 362 417 30,000  Level Cleveland Center
Fri 08:52:21 PM 42.4647 -81.7372 267° West 362 417 30,000  Level Cleveland Center
Fri 08:53:21 PM 42.4614 -81.8581 268° West 362 417 30,000  Level Cleveland Center
Fri 08:54:21 PM 42.4578 -81.9931 268° West 362 417 30,000  Level Cleveland Center
Fri 08:55:21 PM 42.4539 -82.1308 268° West 362 417 30,000  Level Cleveland Center
Fri 08:56:21 PM 42.4500 -82.2686 268° West 362 417 30,000  Level Cleveland Center
Fri 08:57:21 PM 42.4456 -82.4092 268° West 362 417 30,000  Level Cleveland Center
Fri 08:58:21 PM 42.4414 -82.5497 268° West 362 417 30,000  Level Cleveland Center
Fri 08:59:21 PM 42.4367 -82.6903 267° West 367 422 30,000  Level Cleveland Center
Fri 09:00:21 PM 42.4319 -82.8367 268° West 372 428 30,000  Level Cleveland Center
Fri 09:01:21 PM 42.4269 -82.9797 267° West 384 442 30,000  Level Cleveland Center
Fri 09:02:21 PM 42.4214 -83.1344 267° West 384 442 30,000  Level Cleveland Center
Fri 09:03:21 PM 42.4161 -83.2747 267° West 384 442 30,000  Level Cleveland Center
Fri 09:04:21 PM 42.4086 -83.4208 266° West 383 441 30,000  Level Cleveland Center
Fri 09:05:21 PM 42.4028 -83.5611 267° West 383 441 30,000  Level Cleveland Center
Fri 09:06:21 PM 42.3989 -83.7072 268° West 383 441 30,000  Level Cleveland Center
Fri 09:07:21 PM 42.3908 -83.8558 266° West 388 447 30,000  Level Cleveland Center
Fri 09:08:21 PM 42.3844 -83.9989 267° West 388 447 30,000  Level Cleveland Center
Fri 09:09:21 PM 42.3781 -84.1447 267° West 388 447 30,000  Level Cleveland Center
Fri 09:10:21 PM 42.3711 -84.2906 266° West 388 447 30,000  Level Cleveland Center
Fri 09:12:01 PM 42.3608 -84.5336 267° West 391 450 30,000  Level Chicago Center
Fri 09:13:03 PM 42.3539 -84.6803 266° West 392 451 30,000  Level Chicago Center
Fri 09:14:05 PM 42.3458 -84.8281 266° West 394 453 30,000  Level Chicago Center
Fri 09:15:06 PM 42.3386 -84.9767 266° West 397 457 30,000  Level Chicago Center
Fri 09:16:08 PM 42.3300 -85.1253 266° West 395 455 30,000  Level Chicago Center
Fri 09:17:10 PM 42.3225 -85.2742 266° West 397 457 30,000  Level Chicago Center
Fri 09:18:11 PM 42.3128 -85.4231 265° West 397 457 30,000  Level Chicago Center
Fri 09:19:13 PM 42.3025 -85.6008 266° West 397 457 30,000  Level Chicago Center
Fri 09:20:15 PM 42.2939 -85.7478 266° West 393 452 30,000  Level Chicago Center
Fri 09:21:17 PM 42.2842 -85.8983 265° West 399 459 30,000  Level Chicago Center
Fri 09:22:19 PM 42.2739 -86.0603 265° West 400 460 30,000  Level Chicago Center
Fri 09:23:20 PM 42.2644 -86.2097 265° West 402 463 30,000  Level Chicago Center
Fri 09:24:22 PM 42.2544 -86.3586 265° West 401 461 30,000  Level Chicago Center
Fri 09:25:23 PM 42.2444 -86.5081 265° West 402 463 30,000  Level Chicago Center
Fri 09:26:25 PM 42.2342 -86.6606 265° West 407 468 30,000  Level Chicago Center
Fri 09:27:27 PM 42.2228 -86.8272 265° West 408 470 30,000  Level Chicago Center
Fri 09:28:29 PM 42.2128 -86.9789 265° West 410 472 30,000  Level Chicago Center
Fri 09:29:30 PM 42.2000 -87.1292 264° West 406 467 30,000  Level Chicago Center
Fri 09:30:32 PM 42.1903 -87.2825 265° West 412 474 30,000  Level Chicago Center
Fri 09:31:34 PM 42.1783 -87.4358 264° West 415 478 30,000  Level Chicago Center
Fri 09:32:35 PM 42.1642 -87.6206 264° West 415 478 30,000  Level Chicago Center
Fri 09:33:37 PM 42.1525 -87.7761 264° West 420 483 30,000  Level Chicago Center
Fri 09:34:39 PM 42.1397 -87.9294 264° West 418 481 30,000  Level Chicago Center
Fri 09:35:40 PM 42.1275 -88.0839 264° West 419 482 30,000  Level Chicago Center
Fri 09:36:42 PM 42.1139 -88.2378 263° West 420 483 30,000  Level Chicago Center
Fri 09:37:43 PM 42.0989 -88.4222 264° West 418 481 30,000  Level Chicago Center
Fri 09:38:45 PM 42.0861 -88.5758 264° West 417 480 30,000  Level Chicago Center
Fri 09:39:47 PM 42.0728 -88.7325 264° West 424 488 30,000  Level Chicago Center
Fri 09:40:48 PM 42.0586 -88.8875 263° West 423 487 30,000  Level Chicago Center
Fri 09:41:50 PM 42.0444 -89.0411 263° West 419 482 30,000  Level Chicago Center
Fri 09:42:52 PM 42.0314 -89.1958 264° West 420 483 30,000  Level Chicago Center
Fri 09:43:53 PM 42.0139 -89.3828 263° West 424 488 30,000  Level Chicago Center
Fri 09:44:55 PM 42.0003 -89.5350 263° West 415 478 30,000  Level Chicago Center
Fri 09:45:56 PM 41.9850 -89.6856 262° West 410 472 30,000  Level Chicago Center
Fri 09:46:58 PM 41.9706 -89.8400 263° West 417 480 30,000  Level Chicago Center
Fri 09:47:59 PM 41.9561 -90.0078 263° West 421 484 30,000  Level Chicago Center
Fri 09:49:01 PM 41.9400 -90.1622 262° West 420 483 30,000  Level Chicago Center
Fri 09:50:03 PM 41.9267 -90.3128 263° West 412 474 30,000  Level Chicago Center
Fri 09:51:04 PM 41.9125 -90.4656 263° West 414 476 30,000  Level Chicago Center
Fri 09:52:06 PM 41.8967 -90.6178 262° West 414 476 30,000  Level Chicago Center
Fri 09:53:07 PM 41.8767 -90.7786 261° West 428 493 30,000  Level Chicago Center
Fri 09:54:09 PM 41.8569 -90.9597 262° West 413 475 30,000  Level Chicago Center
Fri 09:55:10 PM 41.8403 -91.1114 262° West 413 475 30,000  Level Chicago Center
Fri 09:56:12 PM 41.8242 -91.2625 262° West 411 473 30,000  Level Chicago Center
Fri 09:57:13 PM 41.8078 -91.4153 262° West 413 475 30,000  Level Chicago Center
Fri 09:58:15 PM 41.7906 -91.5661 261° West 414 476 30,000 -390 Level Chicago Center
Fri 09:59:16 PM 41.7736 -91.7158 261° West 409 471 29,200 -1,392 Descending Chicago Center
Fri 10:00:20 PM 41.7558 -91.8661 261° West 410 472 27,100 -2,160 Descending Chicago Center
Fri 10:01:21 PM 41.7353 -92.0431 261° West 404 465 24,700 -2,164 Descending Chicago Center
Fri 10:02:22 PM 41.7175 -92.1897 261° West 401 461 22,700 -2,000 Descending Chicago Center
Fri 10:03:24 PM 41.7014 -92.3300 261° West 387 445 20,600 -2,000 Descending Chicago Center
Fri 10:04:25 PM 41.6850 -92.4658 261° West 375 432 18,600 -1,967 Descending Chicago Center
Fri 10:05:26 PM 41.6672 -92.6017 260° West 372 428 16,600 -2,036 Descending Chicago Center
Fri 10:06:17 PM 41.6425 -92.7297 256° West 365 420 14,800 -1,875 Descending Minneapolis Center
Fri 10:07:18 PM 41.6186 -92.8561 256° West 353 406 13,100 -1,659 Descending Minneapolis Center
Fri 10:08:20 PM 41.5958 -92.9806 256° West 346 398 11,400 -1,463 Descending Minneapolis Center
Fri 10:09:21 PM 41.5750 -93.0911 256° West 309 356 10,100 -1,358 Descending Minneapolis Center
Fri 10:10:06 PM 41.5678 -93.1550 261° West 274 315 9,000 -1,574 Descending Minneapolis Center
Fri 10:10:22 PM 41.5564 -93.1911 247° West 258 297 8,500 -1,900 Descending Minneapolis Center
Fri 10:11:06 PM 41.5497 -93.2431 260° West 252 290 7,100 -1,839 Descending Minneapolis Center
Fri 10:11:24 PM 41.5394 -93.2800 250° West 248 285 6,600 -1,770 Descending Minneapolis Center
Fri 10:12:07 PM 41.5336 -93.3308 261° West 246 283 5,300 -1,770 Descending Minneapolis Center
Fri 10:12:25 PM 41.5231 -93.3667 249° West 242 278 4,800 -1,377 Descending Minneapolis Center
Fri 10:13:08 PM 41.5178 -93.4242 263° West 238 274 3,900 -1,279 Descending Minneapolis Center
Fri 10:13:26 PM 41.5064 -93.4564 245° Southwest 233 268 3,500 -900 Descending Minneapolis Center
Fri 10:14:08 PM 41.5014 -93.5036 262° West 227 261 3,000 -885 Descending Minneapolis Center
Fri 10:14:27 PM 41.4919 -93.5347 248° West 220 253 2,600 -492 Descending Minneapolis Center
Fri 10:15:09 PM 41.4903 -93.5714 267° West 189 217 2,500 -290 Descending Minneapolis Center
Fri 10:15:29 PM 41.4906 -93.5936 271° West 164 189 2,300 -600 Descending Minneapolis Center

Login

Don't have an account? Register now (free) for customized features, flight alerts, and more!